createdAt,value
2018-12-12T00:00:16.297Z,4.83
2018-12-12T00:01:18.804Z,6.50
2018-12-12T00:02:21.338Z,5.78
2018-12-12T00:03:23.857Z,5.35
2018-12-12T00:04:26.361Z,5.05
2018-12-12T00:05:28.902Z,4.95
2018-12-12T00:06:31.408Z,5.50
2018-12-12T00:07:33.933Z,5.20
2018-12-12T00:08:36.443Z,4.95
2018-12-12T00:09:38.940Z,5.30
2018-12-12T00:10:41.481Z,5.83
2018-12-12T00:11:44.008Z,5.47
2018-12-12T00:12:48.066Z,4.92
2018-12-12T00:13:50.565Z,4.50
2018-12-12T00:14:53.072Z,5.47
2018-12-12T00:15:55.629Z,5.12
2018-12-12T00:16:58.130Z,5.15
2018-12-12T00:18:00.787Z,5.17
2018-12-12T00:19:03.337Z,4.70
2018-12-12T00:20:05.934Z,4.17
2018-12-12T00:21:08.483Z,4.17
2018-12-12T00:22:10.981Z,5.10
2018-12-12T00:23:13.477Z,4.62
2018-12-12T00:24:15.973Z,4.78
2018-12-12T00:25:18.476Z,4.83
2018-12-12T00:26:21.069Z,4.65
2018-12-12T00:27:23.566Z,5.50
2018-12-12T00:28:26.074Z,4.33
2018-12-12T00:29:28.573Z,5.62
2018-12-12T00:30:31.081Z,5.30
2018-12-12T00:31:33.624Z,5.90
2018-12-12T00:32:36.117Z,4.92
2018-12-12T00:33:38.613Z,4.72
2018-12-12T00:34:41.115Z,5.58
2018-12-12T00:35:43.617Z,5.40
2018-12-12T00:36:46.164Z,5.30
2018-12-12T00:37:48.680Z,5.40
2018-12-12T00:38:51.178Z,5.95
2018-12-12T00:39:53.679Z,5.90
2018-12-12T00:40:56.173Z,5.55
2018-12-12T00:41:58.714Z,5.50
2018-12-12T00:43:01.217Z,5.12
2018-12-12T00:44:03.771Z,5.33
2018-12-12T00:45:06.369Z,6.00
2018-12-12T00:46:08.866Z,5.83
2018-12-12T00:47:11.482Z,5.83
2018-12-12T00:48:13.981Z,5.80
2018-12-12T00:49:16.533Z,5.15
2018-12-12T00:50:19.038Z,5.45
2018-12-12T00:51:21.537Z,6.00
2018-12-12T00:52:24.073Z,5.80
2018-12-12T00:53:26.871Z,5.85
2018-12-12T00:54:29.421Z,5.50
2018-12-12T00:55:31.922Z,5.40
2018-12-12T00:56:34.469Z,6.55
2018-12-12T00:57:37.069Z,5.60
2018-12-12T00:58:39.573Z,6.37
2018-12-12T00:59:42.126Z,7.35
2018-12-12T01:00:44.630Z,6.28
2018-12-12T01:01:47.240Z,6.67
2018-12-12T01:02:49.794Z,6.17
2018-12-12T01:03:52.293Z,6.17
2018-12-12T01:04:54.853Z,6.45
2018-12-12T01:05:57.473Z,6.95
2018-12-12T01:06:59.970Z,6.15
2018-12-12T01:08:02.507Z,6.75
2018-12-12T01:09:06.965Z,6.35
2018-12-12T01:10:09.518Z,6.50
2018-12-12T01:11:17.525Z,7.20
2018-12-12T01:12:20.035Z,6.90
2018-12-12T01:13:22.533Z,6.20
2018-12-12T01:14:25.033Z,6.28
2018-12-12T01:15:27.579Z,6.75
2018-12-12T01:16:30.078Z,6.50
2018-12-12T01:17:32.593Z,6.90
2018-12-12T01:18:35.100Z,6.00
2018-12-12T01:19:37.605Z,7.15
2018-12-12T01:20:40.147Z,6.45
2018-12-12T01:21:42.649Z,5.90
2018-12-12T01:22:45.201Z,6.87
2018-12-12T01:23:47.765Z,7.25
2018-12-12T01:24:50.265Z,6.37
2018-12-12T01:25:52.772Z,6.62
2018-12-12T01:26:55.278Z,6.05
2018-12-12T01:27:57.781Z,7.60
2018-12-12T01:29:00.329Z,6.97
2018-12-12T01:30:02.905Z,6.83
2018-12-12T01:31:05.414Z,8.20
2018-12-12T01:32:07.980Z,7.62
2018-12-12T01:33:10.481Z,6.12
2018-12-12T01:34:13.024Z,7.17
2018-12-12T01:35:15.524Z,7.30
2018-12-12T01:36:18.026Z,7.70
2018-12-12T01:37:20.578Z,8.75
2018-12-12T01:38:23.085Z,6.62
2018-12-12T01:39:25.629Z,7.50
2018-12-12T01:40:28.131Z,6.60
2018-12-12T01:41:30.637Z,7.40
2018-12-12T01:42:33.142Z,7.12
2018-12-12T01:43:35.643Z,7.33
2018-12-12T01:44:38.185Z,7.67
2018-12-12T01:45:40.688Z,7.60
2018-12-12T01:46:43.193Z,7.80
2018-12-12T01:47:45.701Z,7.75
2018-12-12T01:48:48.241Z,7.67
2018-12-12T01:49:50.744Z,7.85
2018-12-12T01:50:53.250Z,7.65
2018-12-12T01:51:55.751Z,8.45
2018-12-12T01:52:58.257Z,7.22
2018-12-12T01:54:00.785Z,7.55
2018-12-12T01:55:03.330Z,7.45
2018-12-12T01:56:05.837Z,7.08
2018-12-12T01:57:08.337Z,7.08
2018-12-12T01:58:10.853Z,7.08
2018-12-12T01:59:13.403Z,6.50
2018-12-12T02:00:15.909Z,7.42
2018-12-12T02:01:18.404Z,6.78
2018-12-12T02:02:20.903Z,6.83
2018-12-12T02:03:23.414Z,7.17
2018-12-12T02:04:25.960Z,8.10
2018-12-12T02:05:28.504Z,7.80
2018-12-12T02:06:30.998Z,7.30
2018-12-12T02:07:33.496Z,8.50
2018-12-12T02:08:35.991Z,7.10
2018-12-12T02:13:14.905Z,6.92
2018-12-12T02:14:17.437Z,7.03
2018-12-12T02:15:19.984Z,7.03
2018-12-12T02:16:22.549Z,6.83
2018-12-12T02:17:25.096Z,7.05
2018-12-12T02:18:27.607Z,7.10
2018-12-12T02:19:30.676Z,7.05
2018-12-12T02:20:33.228Z,7.08
2018-12-12T02:21:35.781Z,7.55
2018-12-12T02:22:38.279Z,7.85
2018-12-12T02:23:40.789Z,7.85
2018-12-12T02:24:43.289Z,6.85
2018-12-12T02:25:45.796Z,7.08
2018-12-12T02:26:48.353Z,7.12
2018-12-12T02:27:50.861Z,7.37
2018-12-12T02:28:53.419Z,7.10
2018-12-12T02:29:55.917Z,6.92
2018-12-12T02:30:58.420Z,7.45
2018-12-12T02:32:01.070Z,7.55
2018-12-12T02:33:03.617Z,7.03
2018-12-12T02:34:06.121Z,7.00
2018-12-12T02:35:08.631Z,7.87
2018-12-12T02:36:11.237Z,6.65
2018-12-12T02:37:13.736Z,7.30
2018-12-12T02:38:16.245Z,7.95
2018-12-12T02:39:18.751Z,7.60
2018-12-12T02:40:21.253Z,6.95
2018-12-12T02:41:23.801Z,7.20
2018-12-12T02:42:26.304Z,7.25
2018-12-12T02:43:28.801Z,6.67
2018-12-12T02:44:31.298Z,6.50
2018-12-12T02:45:33.800Z,7.95
2018-12-12T02:46:36.349Z,7.70
2018-12-12T02:47:38.856Z,7.50
2018-12-12T02:48:41.369Z,6.87
2018-12-12T02:49:43.869Z,6.95
2018-12-12T02:50:46.373Z,7.42
2018-12-12T02:51:48.914Z,6.85
2018-12-12T02:52:51.414Z,6.85
2018-12-12T02:53:53.916Z,6.97
2018-12-12T02:54:56.418Z,7.08
2018-12-12T02:55:58.916Z,7.15
2018-12-12T02:57:01.453Z,8.03
2018-12-12T02:58:04.049Z,7.40
2018-12-12T02:59:06.553Z,8.03
2018-12-12T03:00:10.026Z,6.95
2018-12-12T03:01:12.585Z,6.85
2018-12-12T03:02:15.087Z,7.70
2018-12-12T03:03:17.625Z,7.58
2018-12-12T03:04:20.136Z,7.05
2018-12-12T03:05:22.718Z,6.90
2018-12-12T03:06:25.312Z,6.75
2018-12-12T03:07:27.815Z,7.35
2018-12-12T03:08:30.401Z,7.65
2018-12-12T03:09:32.906Z,7.75
2018-12-12T03:10:35.416Z,8.00
2018-12-12T03:11:37.927Z,6.90
2018-12-12T03:12:40.533Z,6.87
2018-12-12T03:13:43.081Z,7.30
2018-12-12T03:14:45.627Z,7.47
2018-12-12T03:15:48.132Z,7.70
2018-12-12T03:16:50.634Z,7.08
2018-12-12T03:17:53.137Z,7.67
2018-12-12T03:18:55.730Z,8.28
2018-12-12T03:19:58.243Z,6.75
2018-12-12T03:21:00.749Z,7.83
2018-12-12T03:22:03.348Z,7.35
2018-12-12T03:23:05.851Z,7.85
2018-12-12T03:24:08.393Z,7.65
2018-12-12T03:25:10.898Z,8.10
2018-12-12T03:26:13.450Z,8.78
2018-12-12T03:27:15.961Z,7.72
2018-12-12T03:28:18.476Z,8.10
2018-12-12T03:29:20.977Z,8.13
2018-12-12T03:30:23.482Z,7.25
2018-12-12T03:31:26.023Z,8.35
2018-12-12T03:32:28.532Z,8.13
2018-12-12T03:33:31.069Z,8.20
2018-12-12T03:34:33.726Z,7.65
2018-12-12T03:35:36.237Z,9.10
2018-12-12T03:36:38.749Z,9.00
2018-12-12T03:37:41.309Z,8.08
2018-12-12T03:38:43.817Z,8.90
2018-12-12T03:39:46.434Z,9.20
2018-12-12T03:40:48.989Z,7.92
2018-12-12T03:41:51.496Z,8.45
2018-12-12T03:42:54.159Z,8.95
2018-12-12T03:43:56.670Z,7.90
2018-12-12T03:44:59.206Z,8.05
2018-12-12T03:46:01.749Z,8.63
2018-12-12T03:47:04.297Z,8.23
2018-12-12T03:48:06.806Z,8.00
2018-12-12T03:49:09.317Z,9.53
2018-12-12T03:50:11.834Z,8.73
2018-12-12T03:51:14.412Z,8.38
2018-12-12T03:52:17.021Z,9.25
2018-12-12T03:53:19.529Z,8.53
2018-12-12T03:54:22.041Z,8.80
2018-12-12T03:55:24.553Z,8.48
2018-12-12T03:56:27.238Z,8.33
2018-12-12T03:57:29.781Z,9.80
2018-12-12T03:58:32.293Z,9.65
2018-12-12T03:59:34.805Z,10.30
2018-12-12T04:00:37.322Z,8.88
2018-12-12T04:01:39.837Z,9.68
2018-12-12T04:02:42.384Z,9.38
2018-12-12T04:03:44.898Z,8.93
2018-12-12T04:04:47.401Z,9.83
2018-12-12T04:05:49.912Z,9.10
2018-12-12T04:06:52.419Z,9.88
2018-12-12T04:07:55.033Z,10.58
2018-12-12T04:08:57.545Z,8.58
2018-12-12T04:10:00.066Z,9.40
2018-12-12T04:11:02.577Z,9.05
2018-12-12T04:12:05.092Z,9.20
2018-12-12T04:13:07.635Z,9.90
2018-12-12T04:14:10.142Z,9.30
2018-12-12T04:15:12.706Z,9.10
2018-12-12T04:16:15.375Z,10.13
2018-12-12T04:17:17.882Z,8.90
2018-12-12T04:18:20.447Z,9.55
2018-12-12T04:19:22.957Z,10.05
2018-12-12T04:20:25.521Z,9.63
2018-12-12T04:21:28.024Z,9.70
2018-12-12T04:22:30.625Z,10.50
2018-12-12T04:23:33.138Z,9.90
2018-12-12T04:24:35.807Z,9.75
2018-12-12T04:25:38.361Z,10.32
2018-12-12T04:26:40.869Z,9.60
2018-12-12T04:27:43.420Z,10.28
2018-12-12T04:28:45.926Z,9.15
2018-12-12T04:29:48.443Z,9.50
2018-12-12T04:30:51.003Z,9.95
2018-12-12T04:31:53.517Z,11.18
2018-12-12T04:32:56.030Z,10.25
2018-12-12T04:33:58.541Z,10.63
2018-12-12T04:35:01.053Z,11.15
2018-12-12T04:36:03.660Z,11.43
2018-12-12T04:37:06.168Z,11.80
2018-12-12T04:38:08.691Z,11.50
2018-12-12T04:39:11.201Z,11.75
2018-12-12T04:40:13.719Z,11.60
2018-12-12T04:41:16.269Z,12.07
2018-12-12T04:42:18.778Z,12.43
2018-12-12T04:43:21.300Z,13.22
2018-12-12T04:44:23.822Z,12.47
2018-12-12T04:45:26.333Z,12.07
2018-12-12T04:46:29.525Z,11.48
2018-12-12T04:47:32.034Z,12.35
2018-12-12T04:48:34.554Z,12.30
2018-12-12T04:49:37.066Z,12.40
2018-12-12T04:50:39.621Z,12.25
2018-12-12T04:51:42.135Z,13.13
2018-12-12T04:52:44.650Z,13.45
2018-12-12T04:53:47.162Z,12.45
2018-12-12T04:54:49.665Z,11.03
2018-12-12T04:55:52.221Z,12.60
2018-12-12T04:56:54.724Z,11.08
2018-12-12T04:57:57.242Z,12.03
2018-12-12T04:58:59.808Z,10.72
2018-12-12T05:00:02.335Z,12.30
2018-12-12T05:01:04.941Z,12.15
2018-12-12T05:02:07.703Z,11.12
2018-12-12T05:03:10.229Z,11.57
2018-12-12T05:04:12.797Z,11.53
2018-12-12T05:05:15.309Z,12.33
2018-12-12T05:06:17.853Z,11.25
2018-12-12T05:07:20.362Z,11.83
2018-12-12T05:08:22.872Z,12.05
2018-12-12T05:09:25.430Z,13.70
2018-12-12T05:10:27.945Z,28.98
2018-12-12T05:11:30.497Z,31.73
2018-12-12T05:12:33.002Z,24.85
2018-12-12T05:13:35.513Z,16.87
2018-12-12T05:14:38.029Z,14.18
2018-12-12T05:15:40.541Z,16.45
2018-12-12T05:16:43.082Z,14.18
2018-12-12T05:17:45.593Z,13.30
2018-12-12T05:18:48.101Z,12.25
2018-12-12T05:19:50.613Z,12.58
2018-12-12T05:20:53.120Z,12.43
2018-12-12T05:21:55.657Z,11.50
2018-12-12T05:22:58.164Z,14.55
2018-12-12T05:24:00.684Z,12.47
2018-12-12T05:25:03.579Z,11.08
2018-12-12T05:26:06.163Z,11.97
2018-12-12T05:27:08.682Z,11.73
2018-12-12T05:28:11.292Z,11.75
2018-12-12T05:29:13.801Z,37.48
2018-12-12T05:30:16.316Z,19.48
2018-12-12T05:31:18.829Z,15.58
2018-12-12T05:32:21.369Z,17.32
2018-12-12T05:33:23.919Z,14.60
2018-12-12T05:34:26.428Z,18.35
2018-12-12T05:35:28.937Z,19.65
2018-12-12T05:36:31.453Z,14.40
2018-12-12T05:37:34.073Z,22.15
2018-12-12T05:38:36.605Z,18.07
2018-12-12T05:39:39.114Z,19.27
2018-12-12T05:40:41.677Z,14.68
2018-12-12T05:41:44.184Z,12.90
2018-12-12T05:42:46.781Z,29.42
2018-12-12T05:43:49.297Z,14.98
2018-12-12T05:44:51.871Z,13.90
2018-12-12T05:45:54.450Z,12.18
2018-12-12T05:46:56.962Z,12.55
2018-12-12T05:47:59.505Z,11.85
2018-12-12T05:49:02.023Z,11.28
2018-12-12T05:50:04.844Z,11.93
2018-12-12T05:51:07.409Z,12.65
2018-12-12T05:52:09.927Z,12.60
2018-12-12T05:53:12.471Z,12.85
2018-12-12T05:54:14.986Z,12.75
2018-12-12T05:55:17.494Z,11.30
2018-12-12T05:56:20.006Z,12.20
2018-12-12T05:57:22.549Z,13.13
2018-12-12T05:58:25.093Z,11.85
2018-12-12T05:59:27.601Z,11.65
2018-12-12T06:00:30.114Z,11.65
2018-12-12T06:01:32.768Z,12.73
2018-12-12T06:02:35.409Z,14.78
2018-12-12T06:03:37.961Z,35.63
2018-12-12T06:04:40.479Z,21.35
2018-12-12T06:05:42.989Z,17.85
2018-12-12T06:06:45.546Z,15.50
2018-12-12T06:07:48.057Z,13.00
2018-12-12T06:08:50.573Z,13.65
2018-12-12T06:09:53.077Z,13.40
2018-12-12T06:10:55.634Z,11.85
2018-12-12T06:11:58.178Z,12.60
2018-12-12T06:13:00.686Z,11.15
2018-12-12T06:14:03.330Z,13.20
2018-12-12T06:15:07.181Z,13.20
2018-12-12T06:16:09.693Z,12.30
2018-12-12T06:17:12.201Z,12.18
2018-12-12T06:18:14.750Z,14.87
2018-12-12T06:19:17.254Z,13.25
2018-12-12T06:20:19.855Z,12.85
2018-12-12T06:21:22.370Z,13.48
2018-12-12T06:22:24.975Z,12.37
2018-12-12T06:23:27.538Z,12.82
2018-12-12T06:24:30.049Z,12.25
2018-12-12T06:25:32.593Z,12.75
2018-12-12T06:26:37.486Z,13.78
2018-12-12T06:27:39.738Z,12.65
2018-12-12T06:28:42.249Z,13.72
2018-12-12T06:29:44.771Z,15.08
2018-12-12T06:30:47.285Z,13.00
2018-12-12T06:31:49.817Z,12.73
2018-12-12T06:32:52.328Z,12.55
2018-12-12T06:33:54.846Z,13.22
2018-12-12T06:34:57.361Z,14.07
2018-12-12T06:35:59.891Z,13.40
2018-12-12T06:37:02.533Z,15.98
2018-12-12T06:38:05.046Z,15.55
2018-12-12T06:39:07.557Z,14.73
2018-12-12T06:40:10.125Z,14.30
2018-12-12T06:41:12.638Z,13.80
2018-12-12T06:42:15.194Z,14.00
2018-12-12T06:43:17.697Z,14.15
2018-12-12T06:44:20.206Z,14.30
2018-12-12T06:45:22.713Z,13.28
2018-12-12T06:46:26.407Z,14.80
2018-12-12T06:47:29.134Z,14.80
2018-12-12T06:48:31.665Z,13.28
2018-12-12T06:49:34.199Z,13.65
2018-12-12T06:50:36.713Z,14.28
2018-12-12T06:51:39.238Z,13.80
2018-12-12T06:52:41.780Z,14.58
2018-12-12T06:53:44.293Z,13.72
2018-12-12T06:54:46.809Z,14.15
2018-12-12T06:55:49.325Z,15.55
2018-12-12T06:56:51.834Z,14.60
2018-12-12T06:57:54.389Z,13.93
2018-12-12T06:58:56.903Z,14.68
2018-12-12T06:59:59.417Z,14.28
2018-12-12T07:01:01.925Z,14.83
2018-12-12T07:02:04.545Z,15.35
2018-12-12T07:03:07.078Z,15.30
2018-12-12T07:04:09.586Z,13.30
2018-12-12T07:05:12.181Z,14.03
2018-12-12T07:06:14.695Z,14.90
2018-12-12T07:07:17.357Z,14.80
2018-12-12T07:08:19.865Z,14.18
2018-12-12T07:09:22.405Z,14.60
2018-12-12T07:10:24.909Z,14.83
2018-12-12T07:11:27.469Z,15.00
2018-12-12T07:12:29.985Z,13.32
2018-12-12T07:13:35.729Z,13.00
2018-12-12T07:14:37.069Z,13.90
2018-12-12T07:15:39.580Z,15.55
2018-12-12T07:16:42.213Z,18.25
2018-12-12T07:17:44.729Z,14.50
2018-12-12T07:18:47.242Z,13.18
2018-12-12T07:19:49.798Z,20.23
2018-12-12T07:20:52.321Z,21.02
2018-12-12T07:21:54.837Z,30.23
2018-12-12T07:22:57.346Z,18.67
2018-12-12T07:23:59.978Z,19.12
2018-12-12T07:25:02.517Z,16.65
2018-12-12T07:26:05.059Z,14.55
2018-12-12T07:27:07.570Z,16.30
2018-12-12T07:28:10.081Z,15.23
2018-12-12T07:29:12.622Z,17.85
2018-12-12T07:30:15.149Z,19.40
2018-12-12T07:31:17.718Z,14.20
2018-12-12T07:32:25.878Z,13.20
2018-12-12T07:33:24.791Z,14.33
2018-12-12T07:34:27.360Z,12.40
2018-12-12T07:35:29.878Z,13.70
2018-12-12T07:36:32.386Z,11.65
2018-12-12T07:37:34.938Z,12.47
2018-12-12T07:38:37.457Z,10.65
2018-12-12T07:39:39.964Z,10.82
2018-12-12T07:40:42.477Z,11.20
2018-12-12T07:41:45.030Z,12.73
2018-12-12T07:42:47.574Z,12.20
2018-12-12T07:43:50.087Z,10.65
2018-12-12T07:44:52.743Z,12.55
2018-12-12T07:45:55.262Z,11.83
2018-12-12T07:46:57.957Z,11.73
2018-12-12T07:48:01.505Z,11.88
2018-12-12T07:49:04.599Z,11.53
2018-12-12T07:50:07.157Z,12.58
2018-12-12T07:51:09.696Z,12.53
2018-12-12T07:52:12.345Z,12.00
2018-12-12T07:53:14.889Z,10.72
2018-12-12T07:54:17.397Z,11.60
2018-12-12T07:55:19.905Z,11.73
2018-12-12T07:56:22.417Z,11.88
2018-12-12T07:57:25.018Z,11.55
2018-12-12T07:58:27.528Z,11.78
2018-12-12T07:59:30.099Z,13.22
2018-12-12T08:00:32.613Z,13.70
2018-12-12T08:01:35.126Z,13.05
2018-12-12T08:02:37.674Z,11.00
2018-12-12T08:03:40.190Z,11.93
2018-12-12T08:04:42.739Z,12.10
2018-12-12T08:05:45.246Z,10.58
2018-12-12T08:06:47.760Z,10.93
2018-12-12T08:07:50.261Z,11.93
2018-12-12T08:08:52.772Z,11.73
2018-12-12T08:09:55.319Z,11.63
2018-12-12T08:10:57.836Z,12.05
2018-12-12T08:12:00.353Z,11.38
2018-12-12T08:13:02.870Z,12.05
2018-12-12T08:14:05.405Z,11.88
2018-12-12T08:15:07.977Z,11.80
2018-12-12T08:16:10.541Z,11.48
2018-12-12T08:17:13.054Z,10.78
2018-12-12T08:18:15.617Z,10.35
2018-12-12T08:19:18.174Z,10.15
2018-12-12T08:20:20.698Z,10.98
2018-12-12T08:21:23.208Z,11.00
2018-12-12T08:22:25.727Z,11.43
2018-12-12T08:23:28.397Z,13.05
2018-12-12T08:24:30.942Z,11.38
2018-12-12T08:25:33.645Z,10.63
2018-12-12T08:26:36.161Z,9.70
2018-12-12T08:27:39.384Z,10.53
2018-12-12T08:28:42.159Z,10.60
2018-12-12T08:29:44.705Z,9.03
2018-12-12T08:30:47.274Z,10.50
2018-12-12T08:31:49.810Z,9.38
2018-12-12T08:32:52.326Z,10.55
2018-12-12T08:33:54.834Z,9.53
2018-12-12T08:34:57.341Z,10.43
2018-12-12T08:35:59.859Z,10.00
2018-12-12T08:37:02.409Z,9.58
2018-12-12T08:38:04.954Z,10.10
2018-12-12T08:39:07.465Z,8.90
2018-12-12T08:40:10.044Z,9.48
2018-12-12T08:41:12.549Z,9.23
2018-12-12T08:42:15.048Z,9.48
2018-12-12T08:43:17.585Z,9.90
2018-12-12T08:44:20.101Z,9.58
2018-12-12T08:45:22.610Z,9.35
2018-12-12T08:46:25.116Z,10.15
2018-12-12T08:47:27.648Z,9.70
2018-12-12T08:48:30.153Z,9.70
2018-12-12T08:49:32.663Z,9.75
2018-12-12T08:50:35.214Z,10.40
2018-12-12T08:51:37.732Z,9.75
2018-12-12T08:52:40.349Z,8.58
2018-12-12T08:53:42.857Z,9.70
2018-12-12T08:54:45.393Z,10.15
2018-12-12T08:55:47.939Z,9.55
2018-12-12T08:56:51.499Z,9.90
2018-12-12T08:57:54.037Z,9.40
2018-12-12T08:58:56.541Z,9.10
2018-12-12T08:59:59.073Z,9.05
2018-12-12T09:01:01.581Z,9.10
2018-12-12T09:02:05.428Z,9.23
2018-12-12T09:03:08.217Z,9.45
2018-12-12T09:04:10.805Z,8.63
2018-12-12T09:05:13.372Z,9.25
2018-12-12T09:06:15.877Z,9.53
2018-12-12T09:07:18.381Z,9.70
2018-12-12T09:08:20.900Z,9.10
2018-12-12T09:09:23.494Z,9.55
2018-12-12T09:10:26.098Z,9.25
2018-12-12T09:11:28.598Z,9.73
2018-12-12T09:12:31.113Z,9.63
2018-12-12T09:13:33.625Z,9.08
2018-12-12T09:14:36.140Z,10.13
2018-12-12T09:15:38.681Z,9.50
2018-12-12T09:16:41.185Z,8.48
2018-12-12T09:17:43.727Z,8.70
2018-12-12T09:18:46.233Z,8.33
2018-12-12T09:19:48.738Z,8.50
2018-12-12T09:20:51.238Z,7.53
2018-12-12T09:21:53.773Z,7.83
2018-12-12T09:22:56.291Z,8.15
2018-12-12T09:23:58.807Z,7.90
2018-12-12T09:25:01.312Z,7.40
2018-12-12T09:26:03.853Z,7.37
2018-12-12T09:27:06.392Z,8.50
2018-12-12T09:28:08.899Z,8.25
2018-12-12T09:29:11.401Z,7.40
2018-12-12T09:30:13.940Z,7.78
2018-12-12T09:31:16.454Z,7.83
2018-12-12T09:32:18.962Z,7.80
2018-12-12T09:33:24.527Z,7.12
2018-12-12T09:34:26.070Z,7.70
2018-12-12T09:35:28.582Z,7.65
2018-12-12T09:36:31.123Z,7.62
2018-12-12T09:37:33.625Z,7.72
2018-12-12T09:38:36.137Z,8.28
2018-12-12T09:39:38.686Z,8.85
2018-12-12T09:40:41.253Z,7.83
2018-12-12T09:41:43.762Z,7.22
2018-12-12T09:42:46.263Z,7.85
2018-12-12T09:43:48.769Z,7.42
2018-12-12T09:44:51.300Z,8.03
2018-12-12T09:45:53.813Z,8.28
2018-12-12T09:46:56.401Z,7.35
2018-12-12T09:47:58.922Z,6.80
2018-12-12T09:49:01.465Z,7.72
2018-12-12T09:50:05.170Z,7.40
2018-12-12T09:51:07.680Z,7.30
2018-12-12T09:52:10.192Z,8.08
2018-12-12T09:53:12.688Z,7.10
2018-12-12T09:54:15.231Z,6.90
2018-12-12T09:55:17.773Z,6.15
2018-12-12T09:56:20.285Z,6.30
2018-12-12T09:57:22.785Z,6.35
2018-12-12T09:58:25.369Z,6.00
2018-12-12T09:59:27.870Z,5.20
2018-12-12T10:00:30.430Z,5.85
2018-12-12T10:01:32.943Z,6.03
2018-12-12T10:02:35.449Z,6.42
2018-12-12T10:03:37.984Z,6.70
2018-12-12T10:04:40.497Z,6.35
2018-12-12T10:05:42.997Z,7.17
2018-12-12T10:06:45.498Z,7.15
2018-12-12T10:07:48.050Z,6.55
2018-12-12T10:08:50.566Z,6.72
2018-12-12T10:09:53.101Z,6.70
2018-12-12T10:10:55.609Z,6.72
2018-12-12T10:11:58.115Z,5.83
2018-12-12T10:13:00.623Z,6.50
2018-12-12T10:14:03.263Z,7.22
2018-12-12T10:15:06.058Z,6.80
2018-12-12T10:16:08.569Z,7.35
2018-12-12T10:17:11.118Z,7.33
2018-12-12T10:18:13.620Z,6.65
2018-12-12T10:19:16.129Z,7.42
2018-12-12T10:20:18.641Z,7.37
2018-12-12T10:21:21.145Z,7.00
2018-12-12T10:22:23.689Z,7.03
2018-12-12T10:23:26.190Z,8.00
2018-12-12T10:24:28.746Z,8.05
2018-12-12T10:25:31.248Z,7.50
2018-12-12T10:26:33.943Z,8.55
2018-12-12T10:27:36.454Z,7.80
2018-12-12T10:28:38.954Z,7.80
2018-12-12T10:29:41.451Z,7.72
2018-12-12T10:30:43.966Z,7.60
2018-12-12T10:31:46.509Z,7.83
2018-12-12T10:32:49.010Z,7.37
2018-12-12T10:33:51.518Z,6.92
2018-12-12T10:34:54.022Z,7.15
2018-12-12T10:35:56.525Z,7.25
2018-12-12T10:36:59.117Z,8.03
2018-12-12T10:38:01.653Z,6.37
2018-12-12T10:39:07.863Z,7.00
2018-12-12T10:40:10.378Z,6.97
2018-12-12T10:41:12.880Z,6.00
2018-12-12T10:42:15.428Z,6.72
2018-12-12T10:43:17.949Z,6.17
2018-12-12T10:44:20.454Z,6.35
2018-12-12T10:45:22.959Z,7.05
2018-12-12T10:46:25.477Z,6.87
2018-12-12T10:47:28.017Z,6.12
2018-12-12T10:48:30.513Z,6.62
2018-12-12T10:49:33.025Z,6.00
2018-12-12T10:50:35.530Z,5.95
2018-12-12T10:51:38.068Z,6.55
2018-12-12T10:52:40.565Z,6.30
2018-12-12T10:53:43.073Z,7.15
2018-12-12T10:54:45.584Z,7.10
2018-12-12T10:55:48.086Z,6.80
2018-12-12T10:56:50.626Z,6.53
2018-12-12T10:57:53.487Z,7.20
2018-12-12T10:58:56.030Z,7.22
2018-12-12T10:59:59.119Z,7.28
2018-12-12T11:01:07.423Z,7.28
2018-12-12T11:02:15.506Z,6.40
2018-12-12T11:03:23.682Z,6.90
2018-12-12T11:04:26.227Z,7.37
2018-12-12T11:05:28.775Z,5.85
2018-12-12T11:06:31.280Z,6.80
2018-12-12T11:07:33.778Z,7.70
2018-12-12T11:08:36.314Z,6.10
2018-12-12T11:09:38.823Z,7.25
2018-12-12T11:10:41.374Z,7.05
2018-12-12T11:11:43.878Z,6.05
2018-12-12T11:12:46.414Z,7.45
2018-12-12T11:13:48.964Z,6.60
2018-12-12T11:14:51.465Z,6.60
2018-12-12T11:15:53.997Z,6.75
2018-12-12T11:16:56.498Z,6.62
2018-12-12T11:17:59.004Z,6.67
2018-12-12T11:19:01.505Z,6.83
2018-12-12T11:20:05.049Z,6.70
2018-12-12T11:21:07.615Z,7.33
2018-12-12T11:22:10.113Z,7.35
2018-12-12T11:23:12.617Z,7.62
2018-12-12T11:24:15.156Z,7.60
2018-12-12T11:25:17.654Z,7.15
2018-12-12T11:26:20.260Z,6.87
2018-12-12T11:27:22.765Z,7.15
2018-12-12T11:28:25.278Z,7.37
2018-12-12T11:29:27.789Z,8.10
2018-12-12T11:30:30.341Z,8.35
2018-12-12T11:31:32.880Z,7.60
2018-12-12T11:32:35.389Z,9.38
2018-12-12T11:33:37.897Z,7.97
2018-12-12T11:34:40.415Z,7.70
2018-12-12T11:35:42.924Z,8.60
2018-12-12T11:36:45.462Z,8.50
2018-12-12T11:37:48.006Z,8.03
2018-12-12T11:38:50.518Z,8.58
2018-12-12T11:39:53.021Z,7.78
2018-12-12T11:40:55.582Z,8.58
2018-12-12T11:41:58.117Z,8.35
2018-12-12T11:43:00.625Z,8.83
2018-12-12T11:44:03.261Z,8.40
2018-12-12T11:45:05.877Z,8.05
2018-12-12T11:46:08.388Z,8.08
2018-12-12T11:47:10.896Z,8.23
2018-12-12T11:48:13.393Z,8.35
2018-12-12T11:49:15.928Z,9.40
2018-12-12T11:50:18.433Z,9.30
2018-12-12T11:51:20.931Z,8.10
2018-12-12T11:52:23.438Z,9.35
2018-12-12T11:53:25.972Z,8.68
2018-12-12T11:54:28.521Z,9.05
2018-12-12T11:55:31.029Z,8.28
2018-12-12T11:56:33.533Z,9.60
2018-12-12T11:57:36.128Z,8.90
2018-12-12T11:58:38.644Z,8.83
2018-12-12T11:59:41.150Z,8.83
2018-12-12T12:00:43.670Z,9.33
2018-12-12T12:01:46.204Z,9.60
2018-12-12T12:02:48.745Z,9.05
2018-12-12T12:03:56.613Z,9.35
2018-12-12T12:04:55.817Z,9.55
2018-12-12T12:05:58.318Z,8.65
2018-12-12T12:07:00.817Z,8.58
2018-12-12T12:08:03.329Z,7.22
2018-12-12T12:09:06.881Z,8.95
2018-12-12T12:10:09.482Z,9.08
2018-12-12T12:11:12.001Z,9.65
2018-12-12T12:12:14.515Z,8.90
2018-12-12T12:13:17.017Z,8.13
2018-12-12T12:14:19.563Z,8.45
2018-12-12T12:15:22.066Z,7.75
2018-12-12T12:16:24.585Z,7.97
2018-12-12T12:17:27.146Z,7.95
2018-12-12T12:18:29.651Z,7.92
2018-12-12T12:19:32.189Z,8.23
2018-12-12T12:20:34.809Z,8.40
2018-12-12T12:21:37.354Z,7.20
2018-12-12T12:22:39.857Z,7.35
2018-12-12T12:23:42.410Z,6.70
2018-12-12T12:24:44.921Z,7.40
2018-12-12T12:25:47.452Z,7.50
2018-12-12T12:26:50.008Z,7.70
2018-12-12T12:27:52.537Z,6.70
2018-12-12T12:28:55.189Z,7.50
2018-12-12T12:29:57.685Z,7.83
2018-12-12T12:31:00.193Z,6.12
2018-12-12T12:32:02.737Z,7.00
2018-12-12T12:33:05.233Z,6.37
2018-12-12T12:34:07.794Z,6.65
2018-12-12T12:35:10.353Z,6.95
2018-12-12T12:36:12.869Z,7.17
2018-12-12T12:37:15.405Z,6.55
2018-12-12T12:38:17.906Z,7.65
2018-12-12T12:39:20.414Z,6.40
2018-12-12T12:40:22.946Z,8.60
2018-12-12T12:41:25.445Z,7.95
2018-12-12T12:42:27.950Z,8.60
2018-12-12T12:43:30.457Z,8.20
2018-12-12T12:44:32.993Z,7.53
2018-12-12T12:45:35.506Z,7.80
2018-12-12T12:46:38.022Z,9.20
2018-12-12T12:47:40.569Z,8.45
2018-12-12T12:48:43.074Z,8.38
2018-12-12T12:49:45.574Z,7.47
2018-12-12T12:50:48.081Z,7.85
2018-12-12T12:51:50.617Z,8.43
2018-12-12T12:52:53.166Z,8.70
2018-12-12T12:53:55.669Z,7.67
2018-12-12T12:54:58.172Z,8.30
2018-12-12T12:56:00.755Z,7.62
2018-12-12T12:57:03.301Z,8.78
2018-12-12T12:58:05.912Z,8.00
2018-12-12T12:59:08.473Z,7.45
2018-12-12T13:00:11.073Z,8.60
2018-12-12T13:01:13.569Z,7.90
2018-12-12T13:02:16.074Z,8.13
2018-12-12T13:03:18.609Z,8.05
2018-12-12T13:04:21.238Z,7.78
2018-12-12T13:05:23.742Z,7.40
2018-12-12T13:06:26.257Z,7.80
2018-12-12T13:07:28.769Z,7.28
2018-12-12T13:08:31.313Z,8.40
2018-12-12T13:09:33.808Z,7.55
2018-12-12T13:10:36.358Z,7.50
2018-12-12T13:11:38.877Z,6.78
2018-12-12T13:12:41.881Z,7.10
2018-12-12T13:13:44.431Z,7.53
2018-12-12T13:14:46.929Z,6.05
2018-12-12T13:15:49.523Z,7.08
2018-12-12T13:16:52.126Z,7.83
2018-12-12T13:17:54.668Z,7.62
2018-12-12T13:18:57.182Z,7.53
2018-12-12T13:19:59.689Z,7.90
2018-12-12T13:21:02.196Z,7.70
2018-12-12T13:22:04.697Z,7.67
2018-12-12T13:23:07.238Z,8.50
2018-12-12T13:24:09.750Z,8.33
2018-12-12T13:25:12.248Z,8.25
2018-12-12T13:26:14.790Z,8.28
2018-12-12T13:27:17.299Z,8.70
2018-12-12T13:28:19.842Z,9.10
2018-12-12T13:29:22.358Z,8.35
2018-12-12T13:30:24.863Z,8.28
2018-12-12T13:31:27.370Z,7.72
2018-12-12T13:32:29.926Z,8.18
2018-12-12T13:33:32.429Z,8.50
2018-12-12T13:34:34.938Z,8.48
2018-12-12T13:35:37.452Z,9.38
2018-12-12T13:36:39.961Z,8.10
2018-12-12T13:37:42.505Z,8.83
2018-12-12T13:38:45.017Z,8.20
2018-12-12T13:39:47.517Z,8.90
2018-12-12T13:40:50.088Z,9.08
2018-12-12T13:41:52.634Z,14.00
2018-12-12T13:42:55.144Z,13.53
2018-12-12T13:43:57.655Z,14.68
2018-12-12T13:45:00.169Z,13.15
2018-12-12T13:46:02.709Z,12.00
2018-12-12T13:47:05.265Z,11.88
2018-12-12T13:48:07.800Z,9.18